createdAt,value
2019-01-30T00:02:00.364Z,5.87
2019-01-30T00:06:52.081Z,5.90
2019-01-30T00:11:43.129Z,5.40
2019-01-30T00:16:34.850Z,5.53
2019-01-30T00:21:25.863Z,5.60
2019-01-30T00:26:18.335Z,5.33
2019-01-30T00:31:09.364Z,5.82
2019-01-30T00:36:01.087Z,5.80
2019-01-30T00:40:52.014Z,7.35
2019-01-30T00:45:43.739Z,6.10
2019-01-30T00:50:34.755Z,6.43
2019-01-30T00:55:25.683Z,5.73
2019-01-30T01:00:19.491Z,5.53
2019-01-30T01:05:11.243Z,6.80
2019-01-30T01:10:02.209Z,6.20
2019-01-30T01:14:53.089Z,6.40
2019-01-30T01:19:43.969Z,6.37
2019-01-30T01:24:34.853Z,6.97
2019-01-30T01:29:25.758Z,7.40
2019-01-30T01:34:16.645Z,7.32
2019-01-30T01:39:08.273Z,6.37
2019-01-30T01:43:59.889Z,7.07
2019-01-30T01:48:50.773Z,5.80
2019-01-30T01:53:41.729Z,6.27
2019-01-30T01:58:33.404Z,6.07
2019-01-30T02:03:24.288Z,7.13
2019-01-30T02:08:15.936Z,7.30
2019-01-30T02:13:07.578Z,6.30
2019-01-30T02:17:59.204Z,6.80
2019-01-30T02:22:50.828Z,6.53
2019-01-30T02:27:42.454Z,7.20
2019-01-30T02:32:33.337Z,6.83
2019-01-30T02:37:24.214Z,6.73
2019-01-30T02:42:15.114Z,7.87
2019-01-30T02:47:06.100Z,6.70
2019-01-30T02:51:56.981Z,6.73
2019-01-30T02:56:47.928Z,6.30
2019-01-30T03:01:38.818Z,7.20
2019-01-30T03:06:29.786Z,7.30
2019-01-30T03:11:20.693Z,7.40
2019-01-30T03:16:11.569Z,7.30
2019-01-30T03:21:02.445Z,8.50
2019-01-30T03:25:53.328Z,8.67
2019-01-30T03:30:44.269Z,7.57
2019-01-30T03:35:35.133Z,8.70
2019-01-30T03:40:26.753Z,6.83
2019-01-30T03:45:18.458Z,6.77
2019-01-30T03:50:09.349Z,7.60
2019-01-30T03:55:00.287Z,8.40
2019-01-30T03:59:51.873Z,7.60
2019-01-30T04:04:43.553Z,8.10
2019-01-30T04:09:34.471Z,7.70
2019-01-30T04:14:25.352Z,7.47
2019-01-30T04:19:16.976Z,10.90
2019-01-30T04:24:08.600Z,8.85
2019-01-30T04:28:59.489Z,8.10
2019-01-30T04:33:50.376Z,8.27
2019-01-30T04:38:41.261Z,8.60
2019-01-30T04:43:32.145Z,8.47
2019-01-30T04:48:23.025Z,8.80
2019-01-30T04:53:13.969Z,7.93
2019-01-30T04:58:04.914Z,8.10
2019-01-30T05:02:55.800Z,7.70
2019-01-30T05:07:46.691Z,8.20
2019-01-30T05:12:37.565Z,7.43
2019-01-30T05:17:28.466Z,7.83
2019-01-30T05:22:19.340Z,7.50
2019-01-30T05:27:10.962Z,7.90
2019-01-30T05:32:02.584Z,8.17
2019-01-30T05:36:53.572Z,8.40
2019-01-30T05:41:44.461Z,7.33
2019-01-30T05:46:35.349Z,8.37
2019-01-30T05:51:26.229Z,7.83
2019-01-30T05:56:20.101Z,7.33
2019-01-30T06:01:08.816Z,7.67
2019-01-30T06:05:59.700Z,7.00
2019-01-30T06:10:50.584Z,8.07
2019-01-30T06:15:41.468Z,9.15
2019-01-30T06:20:32.340Z,8.97
2019-01-30T06:25:23.367Z,10.30
2019-01-30T06:30:16.166Z,8.70
2019-01-30T06:35:07.045Z,7.80
2019-01-30T06:39:57.929Z,7.77
2019-01-30T06:44:49.621Z,7.70
2019-01-30T06:49:40.504Z,7.03
2019-01-30T06:54:31.400Z,8.23
2019-01-30T06:59:23.087Z,7.30
2019-01-30T07:04:13.966Z,8.03
2019-01-30T07:09:04.913Z,8.40
2019-01-30T07:13:55.847Z,8.40
2019-01-30T07:18:46.753Z,11.07
2019-01-30T07:23:37.678Z,10.03
2019-01-30T07:28:28.553Z,8.20
2019-01-30T07:33:19.505Z,8.10
2019-01-30T07:38:11.395Z,9.60
2019-01-30T07:43:03.104Z,7.90
2019-01-30T07:47:55.062Z,9.90
2019-01-30T07:52:45.956Z,8.63
2019-01-30T07:57:36.849Z,9.70
2019-01-30T08:02:27.793Z,8.80
2019-01-30T08:07:18.817Z,8.57
2019-01-30T08:12:09.769Z,9.13
2019-01-30T08:17:00.806Z,8.60
2019-01-30T08:21:52.455Z,8.03
2019-01-30T08:26:43.699Z,8.67
2019-01-30T08:31:35.084Z,9.57
2019-01-30T08:36:25.971Z,8.10
2019-01-30T08:41:16.879Z,8.17
2019-01-30T08:46:07.761Z,7.70
2019-01-30T08:50:59.388Z,9.67
2019-01-30T08:55:51.029Z,8.33
2019-01-30T09:00:42.695Z,9.80
2019-01-30T09:05:33.580Z,8.90
2019-01-30T09:10:25.228Z,8.97
2019-01-30T09:15:16.126Z,11.68
2019-01-30T09:20:08.617Z,9.07
2019-01-30T09:24:59.515Z,10.60
2019-01-30T09:29:50.401Z,10.50
2019-01-30T09:34:41.318Z,9.97
2019-01-30T09:39:32.209Z,10.67
2019-01-30T09:44:23.107Z,8.70
2019-01-30T09:49:14.002Z,11.00
2019-01-30T09:54:05.625Z,9.07
2019-01-30T09:58:57.330Z,9.20
2019-01-30T10:03:48.237Z,9.60
2019-01-30T10:08:39.127Z,9.90
2019-01-30T10:13:30.034Z,10.40
2019-01-30T10:18:20.921Z,11.35
2019-01-30T10:23:11.810Z,10.23
2019-01-30T10:28:02.707Z,10.57
2019-01-30T10:32:53.606Z,10.27
2019-01-30T10:37:44.514Z,10.20
2019-01-30T10:42:36.136Z,10.33
2019-01-30T10:47:27.021Z,10.60
2019-01-30T10:52:17.903Z,10.77
2019-01-30T10:57:08.859Z,9.53
2019-01-30T11:01:59.783Z,8.70
2019-01-30T11:06:50.685Z,10.60
2019-01-30T11:11:41.571Z,9.93
2019-01-30T11:16:32.463Z,9.27
2019-01-30T11:21:23.344Z,9.00
2019-01-30T11:26:14.223Z,9.43
2019-01-30T11:31:05.127Z,10.47
2019-01-30T11:35:56.750Z,10.00
2019-01-30T11:40:47.649Z,9.17
2019-01-30T11:45:39.314Z,9.70
2019-01-30T11:50:30.937Z,9.43
2019-01-30T11:55:21.830Z,10.00
2019-01-30T12:00:20.729Z,9.80
2019-01-30T12:05:11.605Z,10.45
2019-01-30T12:10:03.269Z,9.17
2019-01-30T12:14:54.162Z,8.70
2019-01-30T12:19:45.059Z,8.00
2019-01-30T12:24:36.688Z,7.87
2019-01-30T12:29:28.309Z,8.97
2019-01-30T12:34:28.022Z,8.50
2019-01-30T12:39:10.152Z,8.93
2019-01-30T12:44:01.028Z,9.43
2019-01-30T12:48:51.904Z,8.60
2019-01-30T12:53:43.529Z,8.60
2019-01-30T12:58:35.176Z,9.90
2019-01-30T13:03:26.814Z,10.67
2019-01-30T13:08:18.471Z,10.70
2019-01-30T13:13:09.448Z,9.47
2019-01-30T13:18:00.296Z,9.67
2019-01-30T13:22:51.929Z,9.40
2019-01-30T13:27:43.557Z,10.33
2019-01-30T13:32:35.177Z,12.50
2019-01-30T13:37:26.184Z,12.57
2019-01-30T13:42:17.079Z,12.10
2019-01-30T13:47:07.961Z,11.07
2019-01-30T13:51:59.597Z,10.80
2019-01-30T13:56:51.244Z,10.60
2019-01-30T14:01:42.156Z,12.37
2019-01-30T14:06:33.067Z,15.50
2019-01-30T14:11:24.701Z,13.30
2019-01-30T14:16:16.319Z,12.27
2019-01-30T14:21:07.198Z,13.73
2019-01-30T14:25:58.092Z,14.07
2019-01-30T14:30:49.142Z,14.10
2019-01-30T14:35:40.031Z,13.07
2019-01-30T14:40:30.920Z,14.00
2019-01-30T14:45:22.581Z,14.27
2019-01-30T14:50:14.240Z,14.67
2019-01-30T14:55:05.120Z,18.25
2019-01-30T14:59:56.753Z,17.60
2019-01-30T15:04:48.382Z,16.60
2019-01-30T15:09:40.068Z,17.53
2019-01-30T15:14:31.010Z,17.40
2019-01-30T15:19:21.995Z,16.80
2019-01-30T15:24:12.888Z,16.93
2019-01-30T15:29:04.553Z,15.60
2019-01-30T15:33:55.429Z,20.08
2019-01-30T15:38:47.068Z,18.23
2019-01-30T15:43:38.710Z,16.10
2019-01-30T15:48:30.341Z,16.20
2019-01-30T15:53:21.974Z,15.87
2019-01-30T15:58:13.609Z,15.00
2019-01-30T16:03:05.304Z,14.90
2019-01-30T16:07:56.207Z,14.83
2019-01-30T16:12:47.107Z,14.53
2019-01-30T16:17:37.989Z,14.90
2019-01-30T16:22:28.872Z,13.87
2019-01-30T16:27:19.761Z,13.70
2019-01-30T16:32:10.655Z,12.53
2019-01-30T16:37:02.276Z,13.10
2019-01-30T16:41:53.157Z,12.80
2019-01-30T16:46:44.038Z,11.70
2019-01-30T16:51:34.925Z,12.47
2019-01-30T16:56:25.933Z,13.30
2019-01-30T17:01:16.738Z,12.23
2019-01-30T17:06:07.921Z,15.10
2019-01-30T17:10:58.525Z,14.38
2019-01-30T17:15:50.148Z,12.40
2019-01-30T17:20:41.768Z,12.20
2019-01-30T17:25:32.670Z,11.40
2019-01-30T17:30:30.391Z,12.03
2019-01-30T17:35:22.014Z,10.93
2019-01-30T17:40:16.075Z,12.10
2019-01-30T17:45:07.025Z,11.20
2019-01-30T17:49:58.961Z,11.40
2019-01-30T17:54:49.577Z,13.88
2019-01-30T17:59:41.209Z,13.40
2019-01-30T18:04:32.193Z,11.70
2019-01-30T18:09:23.084Z,12.07
2019-01-30T18:14:14.072Z,11.13
2019-01-30T18:19:05.617Z,12.00
2019-01-30T18:23:57.258Z,11.83
2019-01-30T18:28:48.169Z,11.90
2019-01-30T18:33:39.065Z,11.80
2019-01-30T18:38:29.966Z,10.30
2019-01-30T18:43:20.876Z,15.43
2019-01-30T18:48:11.751Z,14.43
2019-01-30T18:53:03.377Z,13.37
2019-01-30T18:57:55.004Z,13.60
2019-01-30T19:02:47.717Z,15.30
2019-01-30T19:07:38.589Z,13.50
2019-01-30T19:12:30.217Z,14.77
2019-01-30T19:17:21.863Z,15.03
2019-01-30T19:22:13.561Z,13.70
2019-01-30T19:27:04.450Z,13.90
2019-01-30T19:31:55.377Z,13.80
2019-01-30T19:36:46.278Z,17.87
2019-01-30T19:41:37.191Z,16.60
2019-01-30T19:46:28.076Z,17.07
2019-01-30T19:51:19.108Z,16.87
2019-01-30T19:56:09.982Z,17.10
2019-01-30T20:01:00.878Z,15.20
2019-01-30T20:05:51.814Z,18.73
2019-01-30T20:10:42.912Z,16.53
2019-01-30T20:15:33.869Z,18.20
2019-01-30T20:20:24.756Z,21.60
2019-01-30T20:25:16.605Z,19.03
2019-01-30T20:30:08.517Z,23.10
2019-01-30T20:35:00.204Z,17.80
2019-01-30T20:39:51.119Z,19.00
2019-01-30T20:44:41.988Z,20.37
2019-01-30T20:49:33.617Z,18.43
2019-01-30T20:54:25.236Z,18.40
2019-01-30T20:59:16.217Z,18.67
2019-01-30T21:04:07.148Z,20.90
2019-01-30T21:08:58.037Z,23.20
2019-01-30T21:13:48.991Z,20.60
2019-01-30T21:18:39.889Z,20.40
2019-01-30T21:23:30.783Z,21.27
2019-01-30T21:28:21.672Z,20.43
2019-01-30T21:33:13.379Z,21.10
2019-01-30T21:38:04.290Z,22.30
2019-01-30T21:42:55.197Z,21.07
2019-01-30T21:47:46.072Z,21.40
2019-01-30T21:52:37.693Z,20.50
2019-01-30T21:57:28.573Z,23.37
2019-01-30T22:02:19.471Z,25.35
2019-01-30T22:07:10.405Z,23.03
2019-01-30T22:12:01.300Z,27.13
2019-01-30T22:16:52.176Z,23.40
2019-01-30T22:21:43.045Z,24.57
2019-01-30T22:26:33.984Z,24.00
2019-01-30T22:31:24.874Z,24.10
2019-01-30T22:36:15.866Z,23.53
2019-01-30T22:41:07.502Z,25.37
2019-01-30T22:45:59.217Z,25.73
2019-01-30T22:50:51.608Z,23.57
2019-01-30T22:55:43.237Z,23.60
2019-01-30T23:00:35.868Z,23.93
2019-01-30T23:05:36.254Z,30.73
2019-01-30T23:10:45.072Z,25.30
2019-01-30T23:15:37.586Z,25.90
2019-01-30T23:20:28.465Z,27.40
2019-01-30T23:25:25.397Z,25.63
2019-01-30T23:35:39.187Z,32.63
2019-01-30T23:40:59.524Z,27.83
2019-01-30T23:45:50.493Z,25.87
2019-01-30T23:50:47.042Z,25.40
2019-01-30T23:55:52.598Z,31.35
